EDDR

Saarbrücken Airport

Saarbrücken, Germany
METAR EDDR 220220Z 07002KT CAVOK 11/10 Q1011
Observed Flight Rules
May-22 @ 02:20 UTC (20 minutes ago) Visual Flight Rules
Wind Visibility Clouds
70° at 2 knots 10,000+ meters
  • Clear skies
Temperatures Readings
Current 11°C / 52°F
Dewpoint 10°C / 50°F
Humidity 94%
Altimeter 29.85" Hg
Pressure 1011 hPa
Elevation 320
METAR EDDR 220220Z 07002KT CAVOK 11/10 Q1011
Observed Flight Rules
May-22 @ 02:20 UTC
(20 minutes ago)
VFR
Wind Visibility
70° at 2 knots 10,000+ meters
Clouds
  • Clear skies
Temperature Dewpoint
11°C / 52°F 10°C / 50°F
Humidity Altimeter Pressure
94% 29.85" Hg 1011 hPa